<?xml version="1.0" encoding="UTF-8" standalone="no" ?>
<gpx xmlns="http://www.topografix.com/GPX/1/1" xmlns:xsi="http://www.w3.org/2001/XMLSchema-instance" xsi:schemaLocation="http://www.topografix.com/GPX/1/1 http://www.topografix.com/GPX/1/1/gpx.xsd" version="1.1" creator="VisuGPX - https://www.visugpx.com">
  <metadata>
    <name>Carantec_Tour_9-23km</name>
    <desc><![CDATA[gnerando idor: 8174953_9307603_9342987]]></desc>
  </metadata>
  <trk>
    <name><![CDATA[Carantec_TourPR_23.2km-9307603]]></name>
    <extensions>
      <line xmlns="http://www.topografix.com/GPX/gpx_style/0/2">
        <color>00FF00</color>
        <width>4</width>
      </line>
    </extensions>
    <trkseg>
      <trkpt lat="48.65514" lon="-3.90249">
        <ele>6</ele>
        <time>2023-10-31T19:34:44Z</time>
      </trkpt>
      <trkpt lat="48.6586" lon="-3.90532">
        <ele>2</ele>
        <time>2023-10-31T19:43:29Z</time>
      </trkpt>
      <trkpt lat="48.66262" lon="-3.90575">
        <ele>7</ele>
        <time>2023-10-31T19:52:27Z</time>
      </trkpt>
      <trkpt lat="48.66449" lon="-3.90369">
        <ele>6</ele>
        <time>2023-10-31T19:57:35Z</time>
      </trkpt>
      <trkpt lat="48.66483" lon="-3.90241">
        <ele>7</ele>
        <time>2023-10-31T19:59:37Z</time>
      </trkpt>
      <trkpt lat="48.66478" lon="-3.90121">
        <ele>7</ele>
        <time>2023-10-31T20:01:23Z</time>
      </trkpt>
      <trkpt lat="48.66517" lon="-3.90026">
        <ele>9</ele>
        <time>2023-10-31T20:03:01Z</time>
      </trkpt>
      <trkpt lat="48.66614" lon="-3.90198">
        <ele>27</ele>
        <time>2023-10-31T20:06:21Z</time>
      </trkpt>
      <trkpt lat="48.66687" lon="-3.89846">
        <ele>38</ele>
        <time>2023-10-31T20:11:46Z</time>
      </trkpt>
      <trkpt lat="48.66835" lon="-3.89477">
        <ele>45</ele>
        <time>2023-10-31T20:18:06Z</time>
      </trkpt>
      <trkpt lat="48.66761" lon="-3.89391">
        <ele>36</ele>
        <time>2023-10-31T20:20:11Z</time>
      </trkpt>
      <trkpt lat="48.66648" lon="-3.89365">
        <ele>10</ele>
        <time>2023-10-31T20:22:43Z</time>
      </trkpt>
      <trkpt lat="48.66699" lon="-3.89082">
        <ele>8</ele>
        <time>2023-10-31T20:27:02Z</time>
      </trkpt>
      <trkpt lat="48.66886" lon="-3.88979">
        <ele>5</ele>
        <time>2023-10-31T20:31:27Z</time>
      </trkpt>
      <trkpt lat="48.6696" lon="-3.89073">
        <ele>19</ele>
        <time>2023-10-31T20:33:36Z</time>
      </trkpt>
      <trkpt lat="48.67113" lon="-3.89013">
        <ele>3</ele>
        <time>2023-10-31T20:37:07Z</time>
      </trkpt>
      <trkpt lat="48.67107" lon="-3.89297">
        <ele>16</ele>
        <time>2023-10-31T20:41:18Z</time>
      </trkpt>
      <trkpt lat="48.67147" lon="-3.8958">
        <ele>20</ele>
        <time>2023-10-31T20:45:33Z</time>
      </trkpt>
      <trkpt lat="48.67237" lon="-3.89734">
        <ele>12</ele>
        <time>2023-10-31T20:48:34Z</time>
      </trkpt>
      <trkpt lat="48.6722" lon="-3.89837">
        <ele>15</ele>
        <time>2023-10-31T20:50:07Z</time>
      </trkpt>
      <trkpt lat="48.67113" lon="-3.8988">
        <ele>10</ele>
        <time>2023-10-31T20:52:35Z</time>
      </trkpt>
      <trkpt lat="48.67045" lon="-3.90146">
        <ele>9</ele>
        <time>2023-10-31T20:56:47Z</time>
      </trkpt>
      <trkpt lat="48.67028" lon="-3.90344">
        <ele>14</ele>
        <time>2023-10-31T20:59:43Z</time>
      </trkpt>
      <trkpt lat="48.66999" lon="-3.90575">
        <ele>11</ele>
        <time>2023-10-31T21:03:10Z</time>
      </trkpt>
      <trkpt lat="48.6692" lon="-3.90747">
        <ele>4</ele>
        <time>2023-10-31T21:06:14Z</time>
      </trkpt>
      <trkpt lat="48.66948" lon="-3.90987">
        <ele>6</ele>
        <time>2023-10-31T21:09:49Z</time>
      </trkpt>
      <trkpt lat="48.67033" lon="-3.91168">
        <ele>13</ele>
        <time>2023-10-31T21:13:05Z</time>
      </trkpt>
      <trkpt lat="48.67181" lon="-3.91211">
        <ele>11</ele>
        <time>2023-10-31T21:16:26Z</time>
      </trkpt>
      <trkpt lat="48.67345" lon="-3.91296">
        <ele>6</ele>
        <time>2023-10-31T21:20:17Z</time>
      </trkpt>
      <trkpt lat="48.67351" lon="-3.91468">
        <ele>10</ele>
        <time>2023-10-31T21:22:49Z</time>
      </trkpt>
      <trkpt lat="48.67283" lon="-3.91726">
        <ele>18</ele>
        <time>2023-10-31T21:26:54Z</time>
      </trkpt>
      <trkpt lat="48.67362" lon="-3.91889">
        <ele>12</ele>
        <time>2023-10-31T21:29:52Z</time>
      </trkpt>
      <trkpt lat="48.67538" lon="-3.92155">
        <ele>6</ele>
        <time>2023-10-31T21:35:24Z</time>
      </trkpt>
      <trkpt lat="48.6743" lon="-3.92301">
        <ele>6</ele>
        <time>2023-10-31T21:38:37Z</time>
      </trkpt>
      <trkpt lat="48.6747" lon="-3.92481">
        <ele>1</ele>
        <time>2023-10-31T21:41:24Z</time>
      </trkpt>
      <trkpt lat="48.68354" lon="-3.92249">
        <ele>5</ele>
        <time>2023-10-31T22:01:22Z</time>
      </trkpt>
      <trkpt lat="48.68654" lon="-3.92283">
        <ele>5</ele>
        <time>2023-10-31T22:08:03Z</time>
      </trkpt>
      <trkpt lat="48.6883" lon="-3.92189">
        <ele>8</ele>
        <time>2023-10-31T22:12:12Z</time>
      </trkpt>
      <trkpt lat="48.6896" lon="-3.92455">
        <ele>4</ele>
        <time>2023-10-31T22:17:04Z</time>
      </trkpt>
      <trkpt lat="48.69056" lon="-3.92575">
        <ele>8</ele>
        <time>2023-10-31T22:19:50Z</time>
      </trkpt>
      <trkpt lat="48.69255" lon="-3.92421">
        <ele>18</ele>
        <time>2023-10-31T22:24:48Z</time>
      </trkpt>
      <trkpt lat="48.69521" lon="-3.92567">
        <ele>6</ele>
        <time>2023-10-31T22:31:06Z</time>
      </trkpt>
      <trkpt lat="48.69714" lon="-3.9255">
        <ele>8</ele>
        <time>2023-10-31T22:35:24Z</time>
      </trkpt>
      <trkpt lat="48.69731" lon="-3.92318">
        <ele>5</ele>
        <time>2023-10-31T22:38:49Z</time>
      </trkpt>
      <trkpt lat="48.69929" lon="-3.92532">
        <ele>3</ele>
        <time>2023-10-31T22:44:14Z</time>
      </trkpt>
      <trkpt lat="48.69776" lon="-3.92713">
        <ele>3</ele>
        <time>2023-10-31T22:48:33Z</time>
      </trkpt>
      <trkpt lat="48.69698" lon="-3.92524">
        <ele>8</ele>
        <time>2023-10-31T22:51:49Z</time>
      </trkpt>
      <trkpt lat="48.69541" lon="-3.92556">
        <ele>6</ele>
        <time>2023-10-31T22:55:20Z</time>
      </trkpt>
      <trkpt lat="48.69392" lon="-3.92541">
        <ele>9</ele>
        <time>2023-10-31T22:58:40Z</time>
      </trkpt>
      <trkpt lat="48.69255" lon="-3.92444">
        <ele>17</ele>
        <time>2023-10-31T23:02:02Z</time>
      </trkpt>
      <trkpt lat="48.69156" lon="-3.92459">
        <ele>16</ele>
        <time>2023-10-31T23:04:14Z</time>
      </trkpt>
      <trkpt lat="48.69065" lon="-3.92605">
        <ele>8</ele>
        <time>2023-10-31T23:07:11Z</time>
      </trkpt>
      <trkpt lat="48.68937" lon="-3.925">
        <ele>6</ele>
        <time>2023-10-31T23:10:25Z</time>
      </trkpt>
      <trkpt lat="48.68784" lon="-3.92588">
        <ele>5</ele>
        <time>2023-10-31T23:14:04Z</time>
      </trkpt>
      <trkpt lat="48.68678" lon="-3.92509">
        <ele>8</ele>
        <time>2023-10-31T23:16:42Z</time>
      </trkpt>
      <trkpt lat="48.68535" lon="-3.92365">
        <ele>4</ele>
        <time>2023-10-31T23:20:31Z</time>
      </trkpt>
      <trkpt lat="48.68369" lon="-3.92223">
        <ele>6</ele>
        <time>2023-10-31T23:24:45Z</time>
      </trkpt>
      <trkpt lat="48.68087" lon="-3.92369">
        <ele>5</ele>
        <time>2023-10-31T23:31:23Z</time>
      </trkpt>
      <trkpt lat="48.67465" lon="-3.92499">
        <ele>1</ele>
        <time>2023-10-31T23:45:21Z</time>
      </trkpt>
      <trkpt lat="48.67413" lon="-3.92318">
        <ele>5</ele>
        <time>2023-10-31T23:48:15Z</time>
      </trkpt>
      <trkpt lat="48.67175" lon="-3.92275">
        <ele>7</ele>
        <time>2023-10-31T23:53:34Z</time>
      </trkpt>
      <trkpt lat="48.67051" lon="-3.92336">
        <ele>6</ele>
        <time>2023-10-31T23:56:28Z</time>
      </trkpt>
      <trkpt lat="48.66835" lon="-3.92525">
        <ele>5</ele>
        <time>2023-11-01T00:02:01Z</time>
      </trkpt>
      <trkpt lat="48.66635" lon="-3.92677">
        <ele>3</ele>
        <time>2023-11-01T00:07:00Z</time>
      </trkpt>
      <trkpt lat="48.66349" lon="-3.92814">
        <ele>2</ele>
        <time>2023-11-01T00:13:40Z</time>
      </trkpt>
      <trkpt lat="48.6612" lon="-3.92785">
        <ele>5</ele>
        <time>2023-11-01T00:18:47Z</time>
      </trkpt>
      <trkpt lat="48.65782" lon="-3.9303">
        <ele>4</ele>
        <time>2023-11-01T00:27:07Z</time>
      </trkpt>
      <trkpt lat="48.65658" lon="-3.93629">
        <ele>6</ele>
        <time>2023-11-01T00:36:20Z</time>
      </trkpt>
      <trkpt lat="48.6542" lon="-3.9394">
        <ele>15</ele>
        <time>2023-11-01T00:43:20Z</time>
      </trkpt>
      <trkpt lat="48.65377" lon="-3.94077">
        <ele>18</ele>
        <time>2023-11-01T00:45:34Z</time>
      </trkpt>
      <trkpt lat="48.65067" lon="-3.94149">
        <ele>39</ele>
        <time>2023-11-01T00:52:32Z</time>
      </trkpt>
      <trkpt lat="48.65114" lon="-3.93904">
        <ele>39</ele>
        <time>2023-11-01T00:56:17Z</time>
      </trkpt>
      <trkpt lat="48.6491" lon="-3.93772">
        <ele>40</ele>
        <time>2023-11-01T01:01:13Z</time>
      </trkpt>
      <trkpt lat="48.64785" lon="-3.93856">
        <ele>40</ele>
        <time>2023-11-01T01:04:16Z</time>
      </trkpt>
      <trkpt lat="48.64607" lon="-3.93856">
        <ele>37</ele>
        <time>2023-11-01T01:08:13Z</time>
      </trkpt>
      <trkpt lat="48.64541" lon="-3.93761">
        <ele>32</ele>
        <time>2023-11-01T01:10:15Z</time>
      </trkpt>
      <trkpt lat="48.64579" lon="-3.9366">
        <ele>36</ele>
        <time>2023-11-01T01:11:57Z</time>
      </trkpt>
      <trkpt lat="48.64557" lon="-3.93528">
        <ele>35</ele>
        <time>2023-11-01T01:13:57Z</time>
      </trkpt>
      <trkpt lat="48.6439" lon="-3.93528">
        <ele>23</ele>
        <time>2023-11-01T01:17:40Z</time>
      </trkpt>
      <trkpt lat="48.64366" lon="-3.92482">
        <ele>54</ele>
        <time>2023-11-01T01:33:03Z</time>
      </trkpt>
      <trkpt lat="48.64139" lon="-3.92557">
        <ele>51</ele>
        <time>2023-11-01T01:38:13Z</time>
      </trkpt>
      <trkpt lat="48.64135" lon="-3.92261">
        <ele>61</ele>
        <time>2023-11-01T01:42:34Z</time>
      </trkpt>
      <trkpt lat="48.64022" lon="-3.92259">
        <ele>60</ele>
        <time>2023-11-01T01:45:05Z</time>
      </trkpt>
      <trkpt lat="48.64029" lon="-3.92127">
        <ele>63</ele>
        <time>2023-11-01T01:47:02Z</time>
      </trkpt>
      <trkpt lat="48.6398" lon="-3.92084">
        <ele>64</ele>
        <time>2023-11-01T01:48:17Z</time>
      </trkpt>
      <trkpt lat="48.63974" lon="-3.91936">
        <ele>66</ele>
        <time>2023-11-01T01:50:28Z</time>
      </trkpt>
      <trkpt lat="48.64043" lon="-3.91835">
        <ele>67</ele>
        <time>2023-11-01T01:52:36Z</time>
      </trkpt>
      <trkpt lat="48.64031" lon="-3.91689">
        <ele>64</ele>
        <time>2023-11-01T01:54:46Z</time>
      </trkpt>
      <trkpt lat="48.64097" lon="-3.9148">
        <ele>58</ele>
        <time>2023-11-01T01:58:10Z</time>
      </trkpt>
      <trkpt lat="48.6422" lon="-3.91328">
        <ele>55</ele>
        <time>2023-11-01T02:01:42Z</time>
      </trkpt>
      <trkpt lat="48.64208" lon="-3.91136">
        <ele>49</ele>
        <time>2023-11-01T02:04:32Z</time>
      </trkpt>
      <trkpt lat="48.64174" lon="-3.90977">
        <ele>46</ele>
        <time>2023-11-01T02:06:59Z</time>
      </trkpt>
      <trkpt lat="48.64104" lon="-3.90872">
        <ele>48</ele>
        <time>2023-11-01T02:09:11Z</time>
      </trkpt>
      <trkpt lat="48.64121" lon="-3.90808">
        <ele>46</ele>
        <time>2023-11-01T02:10:12Z</time>
      </trkpt>
      <trkpt lat="48.64025" lon="-3.90666">
        <ele>40</ele>
        <time>2023-11-01T02:13:11Z</time>
      </trkpt>
      <trkpt lat="48.63937" lon="-3.90663">
        <ele>46</ele>
        <time>2023-11-01T02:15:08Z</time>
      </trkpt>
      <trkpt lat="48.63901" lon="-3.90487">
        <ele>44</ele>
        <time>2023-11-01T02:17:51Z</time>
      </trkpt>
      <trkpt lat="48.63804" lon="-3.90349">
        <ele>42</ele>
        <time>2023-11-01T02:20:48Z</time>
      </trkpt>
      <trkpt lat="48.63835" lon="-3.90264">
        <ele>37</ele>
        <time>2023-11-01T02:22:14Z</time>
      </trkpt>
      <trkpt lat="48.63665" lon="-3.89942">
        <ele>22</ele>
        <time>2023-11-01T02:28:18Z</time>
      </trkpt>
      <trkpt lat="48.63793" lon="-3.89817">
        <ele>17</ele>
        <time>2023-11-01T02:31:41Z</time>
      </trkpt>
      <trkpt lat="48.63858" lon="-3.89517">
        <ele>15</ele>
        <time>2023-11-01T02:36:19Z</time>
      </trkpt>
      <trkpt lat="48.64307" lon="-3.89293">
        <ele>6</ele>
        <time>2023-11-01T02:46:50Z</time>
      </trkpt>
      <trkpt lat="48.64329" lon="-3.89349">
        <ele>4</ele>
        <time>2023-11-01T02:47:48Z</time>
      </trkpt>
      <trkpt lat="48.64641" lon="-3.89782">
        <ele>15</ele>
        <time>2023-11-01T02:57:12Z</time>
      </trkpt>
      <trkpt lat="48.64725" lon="-3.89843">
        <ele>17</ele>
        <time>2023-11-01T02:59:17Z</time>
      </trkpt>
      <trkpt lat="48.64897" lon="-3.89831">
        <ele>5</ele>
        <time>2023-11-01T03:03:07Z</time>
      </trkpt>
      <trkpt lat="48.65112" lon="-3.90059">
        <ele>13</ele>
        <time>2023-11-01T03:08:57Z</time>
      </trkpt>
      <trkpt lat="48.65316" lon="-3.90226">
        <ele>15</ele>
        <time>2023-11-01T03:14:06Z</time>
      </trkpt>
      <trkpt lat="48.65513" lon="-3.90249">
        <ele>6</ele>
        <time>2023-11-01T03:18:30Z</time>
      </trkpt>
    </trkseg>
  </trk>
</gpx>